Time;durP1;ratioP1;P1;durP2;ratioP2;P2;SDS_P1;SDS_P2;PMS_P1;PMS_P2;Temp;Humidity;BMP_temperature;BMP_pressure;BME280_temperature;BME280_humidity;BME280_pressure;Samples;Min_cycle;Max_cycle;Signal;HPM_P1;HPM_P2
2023/08/08 00:00:09;;;;;;;83.63;13.40;;;16.30;82.60;;;;;;4920625;29;20237;-82
2023/08/08 00:02:35;;;;;;;77.00;14.90;;;16.30;84.00;;;;;;4903939;29;20171;-82
2023/08/08 00:05:01;;;;;;;81.13;16.30;;;16.30;85.20;;;;;;4920599;29;20399;-82
2023/08/08 00:07:30;;;;;;;78.50;14.40;;;16.30;87.70;;;;;;4920650;29;20181;-82
2023/08/08 00:09:56;;;;;;;77.20;16.33;;;16.10;90.40;;;;;;4920871;29;20205;-82
2023/08/08 00:12:22;;;;;;;76.63;16.60;;;16.20;90.10;;;;;;4921273;29;20812;-82
2023/08/08 00:14:48;;;;;;;76.57;17.90;;;16.10;90.40;;;;;;4920997;29;20501;-82
2023/08/08 00:17:13;;;;;;;75.13;16.60;;;16.10;91.00;;;;;;4920579;29;20543;-82
2023/08/08 00:19:39;;;;;;;75.57;15.87;;;16.10;90.30;;;;;;4920972;29;20197;-82
2023/08/08 00:22:05;;;;;;;78.00;14.80;;;16.10;90.20;;;;;;4920468;29;20182;-82
2023/08/08 00:24:31;;;;;;;76.70;14.27;;;16.10;86.90;;;;;;4920417;29;20409;-82
2023/08/08 00:26:57;;;;;;;77.87;14.57;;;16.10;85.50;;;;;;4903638;29;20479;-82
2023/08/08 00:29:23;;;;;;;75.00;16.67;;;16.10;84.60;;;;;;4920058;29;20904;-82
2023/08/08 00:31:48;;;;;;;74.17;11.60;;;16.00;85.10;;;;;;4920759;29;20247;-82
2023/08/08 00:34:14;;;;;;;75.63;16.67;;;16.00;83.00;;;;;;4920258;29;20185;-82
2023/08/08 00:36:39;;;;;;;74.57;15.47;;;15.90;85.10;;;;;;4919969;29;20172;-82
2023/08/08 00:39:05;;;;;;;75.67;15.73;;;15.90;88.00;;;;;;4920320;29;20593;-82
2023/08/08 00:41:31;;;;;;;74.07;14.40;;;15.90;88.60;;;;;;4920476;29;20190;-82
2023/08/08 00:43:56;;;;;;;79.07;15.63;;;15.70;90.20;;;;;;4920282;29;20172;-82
2023/08/08 00:46:24;;;;;;;75.87;15.77;;;15.70;91.60;;;;;;4920062;29;20170;-82
2023/08/08 00:48:51;;;;;;;74.77;14.03;;;15.70;93.00;;;;;;4903094;29;20199;-82
2023/08/08 00:51:18;;;;;;;74.67;15.20;;;15.70;92.10;;;;;;4919800;29;20413;-82
2023/08/08 00:53:44;;;;;;;75.40;15.10;;;15.70;91.50;;;;;;4987335;23;20419;-85
2023/08/08 00:56:13;;;;;;;73.10;15.30;;;15.70;90.40;;;;;;4924663;29;20415;-86
2023/08/08 00:58:40;;;;;;;75.47;15.77;;;15.70;90.00;;;;;;4908435;29;20507;-85
2023/08/08 01:01:06;;;;;;;75.70;15.33;;;15.70;91.00;;;;;;4925334;29;20446;-85
2023/08/08 01:03:35;;;;;;;74.20;15.63;;;15.70;89.90;;;;;;4907998;29;20412;-85
2023/08/08 01:06:12;;;;;;;75.20;16.60;;;15.70;90.30;;;;;;4924781;29;20407;-85
2023/08/08 01:08:55;;;;;;;74.10;15.83;;;15.70;90.10;;;;;;4908327;29;20967;-85
2023/08/08 01:11:21;;;;;;;73.40;15.93;;;15.50;91.90;;;;;;4924865;29;20467;-85
2023/08/08 01:13:48;;;;;;;75.43;14.13;;;15.60;91.70;;;;;;4925191;29;20416;-85
2023/08/08 01:16:14;;;;;;;73.93;16.13;;;15.50;93.00;;;;;;4924761;29;20412;-86
2023/08/08 01:18:41;;;;;;;73.30;14.17;;;15.50;93.60;;;;;;4923885;29;20526;-85
2023/08/08 01:21:10;;;;;;;75.80;13.67;;;15.50;91.90;;;;;;4908276;29;20433;-86
2023/08/08 01:24:05;;;;;;;73.30;12.60;;;15.50;88.40;;;;;;4906944;29;20424;-86
2023/08/08 01:26:32;;;;;;;73.87;15.03;;;15.50;90.90;;;;;;4908519;29;20396;-85
2023/08/08 01:28:57;;;;;;;75.63;12.43;;;15.50;89.20;;;;;;4924308;29;20438;-85
2023/08/08 01:31:23;;;;;;;73.07;12.27;;;15.40;92.40;;;;;;4908088;29;20494;-85
2023/08/08 01:33:49;;;;;;;73.40;13.10;;;15.40;93.00;;;;;;4892023;29;20194;-85
2023/08/08 01:36:24;;;;;;;72.67;11.77;;;15.40;92.00;;;;;;4907145;29;20176;-85
2023/08/08 01:38:53;;;;;;;73.13;11.83;;;15.30;94.20;;;;;;4907372;29;20466;-85
2023/08/08 01:41:21;;;;;;;71.87;10.50;;;15.30;94.90;;;;;;4924613;29;20418;-85
2023/08/08 01:43:48;;;;;;;72.83;10.30;;;15.30;95.40;;;;;;4907443;29;20422;-85
2023/08/08 01:46:15;;;;;;;75.10;12.63;;;15.40;93.90;;;;;;4907317;29;20758;-85
2023/08/08 01:48:45;;;;;;;72.57;10.60;;;15.40;93.10;;;;;;4924555;29;21022;-85
2023/08/08 01:51:10;;;;;;;71.77;10.70;;;15.40;93.00;;;;;;4907521;29;20443;-85
2023/08/08 01:53:36;;;;;;;72.50;12.30;;;15.40;92.20;;;;;;4924428;29;20411;-86
2023/08/08 01:56:02;;;;;;;74.77;11.43;;;15.30;93.00;;;;;;4924180;29;20248;-85
2023/08/08 01:58:28;;;;;;;73.93;11.70;;;15.30;92.30;;;;;;4907745;29;20693;-85
2023/08/08 02:00:54;;;;;;;75.07;12.07;;;15.40;92.10;;;;;;4908375;29;20415;-85
2023/08/08 02:03:20;;;;;;;74.17;12.00;;;15.40;90.50;;;;;;4928851;29;20654;-85
2023/08/08 02:05:46;;;;;;;71.70;9.90;;;15.30;92.80;;;;;;4911119;29;20169;-84
2023/08/08 02:08:12;;;;;;;71.40;9.73;;;15.30;93.20;;;;;;4928237;29;20536;-85
2023/08/08 02:10:38;;;;;;;73.77;9.80;;;15.20;95.80;;;;;;4927811;29;20698;-85
2023/08/08 02:13:04;;;;;;;72.97;9.80;;;15.10;96.90;;;;;;4927135;29;20470;-85
2023/08/08 02:15:30;;;;;;;72.17;8.37;;;15.10;98.60;;;;;;4927924;29;20175;-85
2023/08/08 02:17:55;;;;;;;72.37;8.07;;;15.10;97.10;;;;;;4927477;29;20538;-85
2023/08/08 02:20:21;;;;;;;73.90;9.53;;;15.10;98.60;;;;;;4927618;29;20186;-85
2023/08/08 02:22:47;;;;;;;75.53;10.50;;;15.10;99.90;;;;;;4909572;29;20172;-86
2023/08/08 02:25:13;;;;;;;72.27;9.87;;;15.00;99.90;;;;;;4924410;29;20537;-85
2023/08/08 02:27:39;;;;;;;76.57;10.30;;;15.00;99.90;;;;;;4907629;29;20415;-85
2023/08/08 02:30:05;;;;;;;71.83;10.23;;;15.00;99.90;;;;;;4907626;29;20264;-85
2023/08/08 02:32:33;;;;;;;72.77;11.00;;;15.00;99.90;;;;;;4924411;29;20202;-85
2023/08/08 02:37:31;;;;;;;74.33;10.27;;;15.00;99.90;;;;;;4903399;29;20474;-85
2023/08/08 02:39:57;;;;;;;72.17;8.90;;;15.00;99.90;;;;;;4905665;29;20430;-85
2023/08/08 02:42:22;;;;;;;75.50;12.80;;;15.00;99.90;;;;;;4904907;29;20254;-83
2023/08/08 02:44:48;;;;;;;73.23;10.57;;;15.00;99.90;;;;;;4905822;29;20166;-85
2023/08/08 02:47:14;;;;;;;72.50;9.33;;;14.90;99.90;;;;;;4905497;29;20251;-85
2023/08/08 02:49:40;;;;;;;72.90;11.73;;;14.90;99.90;;;;;;4889389;29;20214;-85
2023/08/08 02:52:06;;;;;;;75.60;10.80;;;14.90;99.90;;;;;;4906766;29;20170;-85
2023/08/08 02:54:31;;;;;;;74.93;11.97;;;14.90;99.90;;;;;;4890263;29;20205;-84
2023/08/08 02:56:57;;;;;;;73.37;11.27;;;14.80;99.90;;;;;;4890629;29;20441;-85
2023/08/08 02:59:23;;;;;;;73.17;12.43;;;14.90;99.90;;;;;;4907488;29;20217;-85
2023/08/08 03:01:49;;;;;;;73.53;10.63;;;14.80;99.90;;;;;;4888028;29;20543;-85
2023/08/08 03:04:15;;;;;;;72.93;10.63;;;14.80;99.90;;;;;;4905788;29;20257;-85
2023/08/08 03:06:40;;;;;;;71.77;10.60;;;14.80;99.90;;;;;;4889892;29;20418;-85
2023/08/08 03:09:06;;;;;;;72.80;9.47;;;14.80;99.90;;;;;;4905800;29;20195;-85
2023/08/08 03:11:32;;;;;;;73.60;10.40;;;14.80;99.90;;;;;;4889190;29;20179;-85
2023/08/08 03:13:58;;;;;;;72.70;9.70;;;14.80;99.90;;;;;;4905808;29;20417;-84
2023/08/08 03:16:25;;;;;;;74.90;9.67;;;14.70;99.70;;;;;;4887672;29;20204;-85
2023/08/08 03:18:51;;;;;;;74.27;10.50;;;14.70;99.90;;;;;;4904211;29;20458;-84
2023/08/08 03:21:17;;;;;;;73.17;10.20;;;14.80;98.90;;;;;;4904816;29;20457;-87
2023/08/08 03:23:43;;;;;;;71.90;8.00;;;14.80;98.30;;;;;;4889813;29;20429;-84
2023/08/08 03:26:09;;;;;;;72.47;8.70;;;14.80;99.40;;;;;;4907003;29;20166;-85
2023/08/08 03:28:35;;;;;;;72.83;9.50;;;14.80;97.10;;;;;;4908511;29;20944;-84
2023/08/08 03:31:03;;;;;;;71.80;9.00;;;14.70;96.80;;;;;;4908339;29;20417;-86
2023/08/08 03:33:28;;;;;;;72.30;11.43;;;14.70;98.00;;;;;;4907715;29;20177;-87
2023/08/08 03:35:54;;;;;;;73.00;10.03;;;14.60;98.50;;;;;;4890192;29;20522;-85
2023/08/08 03:38:20;;;;;;;73.10;10.83;;;14.60;99.70;;;;;;4908585;29;20187;-85
2023/08/08 03:40:46;;;;;;;72.60;9.37;;;14.60;99.10;;;;;;4908599;29;20173;-85
2023/08/08 03:43:11;;;;;;;75.10;11.50;;;14.50;99.90;;;;;;4908695;29;20399;-85
2023/08/08 03:45:37;;;;;;;73.23;10.97;;;14.60;99.90;;;;;;4891206;29;20174;-85
2023/08/08 03:48:03;;;;;;;78.60;10.50;;;14.60;99.50;;;;;;4908337;29;20177;-85
2023/08/08 03:50:29;;;;;;;74.47;11.10;;;14.60;99.90;;;;;;4906651;29;20205;-85
2023/08/08 03:52:54;;;;;;;74.90;10.30;;;14.50;99.90;;;;;;4907351;29;20411;-85
2023/08/08 03:55:20;;;;;;;75.87;11.20;;;14.50;99.90;;;;;;4906436;29;20181;-85
2023/08/08 03:57:46;;;;;;;79.50;10.07;;;14.50;99.90;;;;;;4890083;29;20623;-85
2023/08/08 04:00:12;;;;;;;76.53;10.40;;;14.60;99.90;;;;;;4890833;29;20431;-84
2023/08/08 04:02:38;;;;;;;75.23;10.67;;;14.60;99.90;;;;;;4909548;29;20175;-85
2023/08/08 04:05:04;;;;;;;77.80;10.77;;;14.50;99.90;;;;;;4907754;29;20431;-86
2023/08/08 04:07:30;;;;;;;76.67;14.43;;;14.40;99.90;;;;;;4890577;29;20415;-86
2023/08/08 04:09:56;;;;;;;82.97;11.57;;;14.40;99.90;;;;;;4890080;29;20498;-87
2023/08/08 04:12:21;;;;;;;73.57;12.70;;;14.40;99.90;;;;;;4906986;29;20166;-85
2023/08/08 04:14:47;;;;;;;77.50;10.97;;;14.50;99.90;;;;;;4907566;29;20170;-86
2023/08/08 04:17:13;;;;;;;76.50;13.97;;;14.50;99.90;;;;;;4890009;29;20182;-85
2023/08/08 04:19:38;;;;;;;76.07;14.70;;;14.40;99.90;;;;;;4904817;29;20193;-85
2023/08/08 04:22:04;;;;;;;72.60;11.50;;;14.40;99.90;;;;;;4888674;29;20248;-86
2023/08/08 04:24:30;;;;;;;75.17;14.70;;;14.40;99.90;;;;;;4906301;29;20177;-86
2023/08/08 04:26:55;;;;;;;73.90;14.77;;;14.30;99.90;;;;;;4906977;29;20166;-87
2023/08/08 04:29:22;;;;;;;75.20;15.87;;;14.30;99.90;;;;;;4889733;29;20194;-86
2023/08/08 04:31:47;;;;;;;76.27;17.50;;;14.30;99.90;;;;;;4891089;29;20216;-86
2023/08/08 04:34:13;;;;;;;79.00;17.33;;;14.20;99.90;;;;;;4907318;29;20891;-86
2023/08/08 04:36:39;;;;;;;75.80;19.57;;;14.40;99.90;;;;;;4906684;29;20185;-86
2023/08/08 04:39:05;;;;;;;77.73;20.00;;;14.30;99.90;;;;;;4909322;29;20205;-86
2023/08/08 04:41:30;;;;;;;78.93;19.07;;;14.40;99.90;;;;;;4910689;29;20197;-86
2023/08/08 04:43:56;;;;;;;79.10;19.53;;;14.40;99.90;;;;;;4909131;29;20181;-86
2023/08/08 04:46:22;;;;;;;83.40;27.40;;;14.40;99.90;;;;;;4907124;29;20649;-86
2023/08/08 04:48:48;;;;;;;80.07;26.03;;;14.30;99.90;;;;;;4906730;29;20194;-86
2023/08/08 04:51:13;;;;;;;82.87;27.40;;;14.40;99.90;;;;;;4906481;29;20433;-86
2023/08/08 04:53:39;;;;;;;80.93;26.83;;;14.40;99.90;;;;;;4888072;29;20178;-86
2023/08/08 04:56:05;;;;;;;82.47;28.50;;;14.50;99.90;;;;;;4889328;29;20421;-86
2023/08/08 04:58:31;;;;;;;86.20;43.07;;;14.50;99.90;;;;;;4905204;29;20454;-86
2023/08/08 05:00:57;;;;;;;87.83;42.63;;;14.50;99.90;;;;;;4906312;29;20170;-86
2023/08/08 05:03:22;;;;;;;93.37;42.17;;;14.50;99.90;;;;;;4890287;29;20174;-87
2023/08/08 05:05:48;;;;;;;85.77;41.73;;;14.60;99.90;;;;;;4906924;29;20222;-86
2023/08/08 05:08:14;;;;;;;86.83;41.50;;;14.70;99.90;;;;;;4889360;29;20175;-86
2023/08/08 05:10:40;;;;;;;85.20;39.37;;;14.70;99.90;;;;;;4888649;29;20848;-86
2023/08/08 05:13:06;;;;;;;87.77;42.33;;;14.80;99.90;;;;;;4906903;29;20426;-85
2023/08/08 05:15:32;;;;;;;86.17;37.27;;;14.80;99.90;;;;;;4906380;29;20418;-86
2023/08/08 05:17:59;;;;;;;84.53;35.87;;;14.90;99.90;;;;;;4906710;29;20450;-86
2023/08/08 05:20:25;;;;;;;82.20;34.80;;;14.90;99.90;;;;;;4906987;29;20189;-86
2023/08/08 05:22:51;;;;;;;82.87;33.70;;;14.80;99.90;;;;;;4907331;29;20411;-86
2023/08/08 05:25:17;;;;;;;88.57;39.57;;;14.90;99.90;;;;;;4907573;29;20494;-86
2023/08/08 05:27:42;;;;;;;89.07;47.43;;;14.90;99.90;;;;;;4890069;29;20418;-85
2023/08/08 05:30:08;;;;;;;88.30;37.40;;;15.00;99.90;;;;;;4906486;29;20205;-85
2023/08/08 05:32:34;;;;;;;85.33;41.20;;;15.00;99.90;;;;;;4889463;29;20181;-85
2023/08/08 05:35:00;;;;;;;87.17;34.03;;;15.10;99.90;;;;;;4908208;29;20455;-85
2023/08/08 05:37:26;;;;;;;86.03;35.80;;;15.10;99.90;;;;;;4891610;29;20214;-85
2023/08/08 05:39:53;;;;;;;91.03;44.10;;;15.20;99.90;;;;;;4905929;29;20428;-85
2023/08/08 05:42:19;;;;;;;94.83;40.40;;;15.20;99.90;;;;;;4889204;29;20418;-85
2023/08/08 05:44:45;;;;;;;94.57;47.37;;;15.20;99.90;;;;;;4905993;29;20476;-85
2023/08/08 05:47:11;;;;;;;83.33;38.70;;;15.30;99.90;;;;;;4890767;29;20181;-85
2023/08/08 05:49:39;;;;;;;85.97;36.07;;;15.30;99.90;;;;;;4890212;29;20194;-85
2023/08/08 05:52:05;;;;;;;88.00;39.40;;;15.30;99.90;;;;;;4907431;29;20483;-85
2023/08/08 05:54:30;;;;;;;84.60;36.53;;;15.30;99.90;;;;;;4890134;29;20418;-85
2023/08/08 05:56:56;;;;;;;92.37;37.83;;;15.40;99.90;;;;;;4889988;29;20437;-84
2023/08/08 05:59:22;;;;;;;90.60;39.97;;;15.50;99.90;;;;;;4888580;29;20210;-85
2023/08/08 06:01:47;;;;;;;90.00;40.07;;;15.50;99.90;;;;;;4905398;29;20173;-85
2023/08/08 06:04:16;;;;;;;96.00;48.43;;;15.60;99.90;;;;;;4907999;29;20651;-85
2023/08/08 06:06:42;;;;;;;92.20;39.13;;;15.50;99.90;;;;;;4889814;29;20184;-85
2023/08/08 06:09:08;;;;;;;89.17;38.10;;;15.60;99.90;;;;;;5000020;23;20485;-85
2023/08/08 06:11:34;;;;;;;86.60;36.70;;;15.70;99.90;;;;;;4928307;29;20542;-84
2023/08/08 06:14:00;;;;;;;87.77;31.70;;;15.80;99.90;;;;;;4928817;29;20836;-85
2023/08/08 06:16:26;;;;;;;84.60;33.50;;;15.80;99.90;;;;;;4945772;29;20404;-85
2023/08/08 06:18:53;;;;;;;86.50;32.57;;;15.90;99.90;;;;;;4945233;29;20236;-85
2023/08/08 06:21:18;;;;;;;83.20;35.87;;;16.00;99.90;;;;;;4945040;29;20178;-85
2023/08/08 06:23:44;;;;;;;82.17;25.37;;;16.10;99.90;;;;;;4945914;29;20472;-84
2023/08/08 06:26:10;;;;;;;83.10;25.63;;;16.10;99.90;;;;;;4929046;29;20232;-85
2023/08/08 06:28:36;;;;;;;78.53;16.03;;;16.20;99.90;;;;;;4928887;29;20245;-84
2023/08/08 06:31:02;;;;;;;75.40;10.80;;;16.30;99.90;;;;;;4927332;29;20546;-85
2023/08/08 06:33:28;;;;;;;75.87;15.73;;;16.30;99.90;;;;;;4927659;29;20476;-85
2023/08/08 06:35:55;;;;;;;75.17;10.30;;;16.40;99.90;;;;;;4944486;29;20410;-84
2023/08/08 06:38:21;;;;;;;76.50;12.20;;;16.30;99.90;;;;;;4943925;29;20462;-84
2023/08/08 06:40:47;;;;;;;80.00;11.73;;;16.30;99.90;;;;;;4943938;29;20956;-85
2023/08/08 06:43:13;;;;;;;75.80;13.10;;;16.30;99.90;;;;;;4944778;29;20165;-85
2023/08/08 06:45:39;;;;;;;75.53;11.63;;;16.40;99.90;;;;;;4928149;29;20421;-84
2023/08/08 06:48:05;;;;;;;75.90;10.73;;;16.40;99.90;;;;;;4945005;29;20503;-84
2023/08/08 06:50:31;;;;;;;80.53;10.33;;;16.40;99.90;;;;;;4945745;29;20185;-85
2023/08/08 06:52:56;;;;;;;81.37;10.60;;;16.40;99.90;;;;;;4945442;29;20410;-86
2023/08/08 06:55:22;;;;;;;76.20;10.97;;;16.40;99.90;;;;;;4925865;23;20233;-80
2023/08/08 06:57:48;;;;;;;76.27;11.40;;;16.50;99.90;;;;;;4918865;29;20459;-80
2023/08/08 07:00:16;;;;;;;78.70;11.63;;;16.50;99.90;;;;;;4922396;29;20186;-80
2023/08/08 07:02:41;;;;;;;74.80;11.17;;;16.50;99.90;;;;;;4922334;29;20167;-80
2023/08/08 07:05:09;;;;;;;77.00;9.80;;;16.60;99.90;;;;;;4922372;29;20407;-79
2023/08/08 07:07:35;;;;;;;78.87;11.03;;;16.60;99.90;;;;;;4905232;29;20183;-80
2023/08/08 07:10:01;;;;;;;78.47;10.40;;;16.70;99.90;;;;;;4904655;29;20448;-80
2023/08/08 07:12:26;;;;;;;73.57;9.13;;;16.70;99.90;;;;;;4922685;29;20552;-80
2023/08/08 07:14:52;;;;;;;77.10;11.87;;;16.60;99.90;;;;;;4921995;29;20195;-80
2023/08/08 07:17:17;;;;;;;75.90;10.80;;;16.70;99.90;;;;;;4922710;29;20596;-79
2023/08/08 07:19:43;;;;;;;75.30;11.50;;;16.70;99.90;;;;;;4904889;29;20219;-80
2023/08/08 07:22:09;;;;;;;77.57;11.13;;;16.70;99.90;;;;;;4921379;29;20167;-80
2023/08/08 07:24:35;;;;;;;78.63;10.50;;;16.80;99.90;;;;;;4921611;29;20177;-80
2023/08/08 07:27:01;;;;;;;74.97;8.97;;;17.00;99.10;;;;;;4921947;29;20172;-80
2023/08/08 07:29:27;;;;;;;72.00;7.77;;;16.90;94.10;;;;;;4922231;29;20423;-79
2023/08/08 07:31:53;;;;;;;74.33;7.67;;;16.90;95.90;;;;;;4921942;29;20412;-80
2023/08/08 07:34:19;;;;;;;74.93;7.70;;;16.90;95.40;;;;;;4921998;29;20237;-80
2023/08/08 07:36:45;;;;;;;84.13;10.87;;;17.00;96.40;;;;;;4921925;29;20406;-80
2023/08/08 07:39:11;;;;;;;77.93;18.87;;;17.00;99.00;;;;;;4921573;29;21012;-79
2023/08/08 07:41:37;;;;;;;75.40;8.47;;;17.10;99.90;;;;;;4921920;29;20409;-80
2023/08/08 07:44:03;;;;;;;77.30;7.73;;;17.20;95.90;;;;;;4921782;29;20169;-80
2023/08/08 07:46:29;;;;;;;73.87;7.30;;;17.30;95.00;;;;;;4921358;29;20419;-80
2023/08/08 07:48:54;;;;;;;77.13;7.20;;;17.40;92.00;;;;;;4904488;29;20200;-80
2023/08/08 07:51:20;;;;;;;76.77;7.70;;;17.40;91.10;;;;;;4921239;29;20414;-80
2023/08/08 07:53:46;;;;;;;76.13;7.97;;;17.30;86.80;;;;;;4920567;29;20181;-80
2023/08/08 07:56:11;;;;;;;73.00;7.03;;;17.30;89.40;;;;;;4903925;29;20271;-80
2023/08/08 07:58:37;;;;;;;74.77;8.10;;;17.30;89.50;;;;;;4920810;29;20257;-80
2023/08/08 08:01:03;;;;;;;75.20;7.63;;;17.40;90.40;;;;;;4904495;29;20299;-80
2023/08/08 08:03:29;;;;;;;75.07;7.43;;;17.40;87.40;;;;;;4921162;29;20173;-80
2023/08/08 08:05:56;;;;;;;77.47;8.00;;;17.50;89.50;;;;;;4921408;29;20410;-80
2023/08/08 08:08:21;;;;;;;79.17;9.07;;;17.60;87.10;;;;;;4921267;29;20526;-79
2023/08/08 08:10:48;;;;;;;75.00;10.67;;;17.70;78.00;;;;;;4919619;29;20413;-81
2023/08/08 08:13:14;;;;;;;75.90;8.77;;;17.60;75.10;;;;;;4904166;29;20659;-80
2023/08/08 08:15:40;;;;;;;73.43;8.07;;;17.60;85.80;;;;;;4920931;29;20493;-80
2023/08/08 08:18:06;;;;;;;77.20;9.50;;;17.70;86.80;;;;;;4921221;29;20922;-80
2023/08/08 08:20:31;;;;;;;77.53;9.93;;;17.70;82.40;;;;;;4920563;29;20757;-80
2023/08/08 08:22:57;;;;;;;76.03;11.87;;;17.80;70.90;;;;;;4921072;29;20169;-80
2023/08/08 08:25:23;;;;;;;78.13;13.40;;;17.90;68.80;;;;;;4921019;29;20169;-80
2023/08/08 08:27:48;;;;;;;76.87;15.33;;;18.00;71.20;;;;;;4921047;29;20530;-80
2023/08/08 08:30:14;;;;;;;80.90;18.87;;;18.00;64.10;;;;;;4921197;29;20189;-80
2023/08/08 08:32:41;;;;;;;81.27;21.90;;;18.00;64.00;;;;;;4903972;29;20195;-81
2023/08/08 08:35:07;;;;;;;81.80;25.27;;;18.00;56.10;;;;;;4903468;29;20177;-80
2023/08/08 08:37:33;;;;;;;80.47;24.97;;;18.10;57.50;;;;;;4920170;29;20463;-80
2023/08/08 08:40:00;;;;;;;84.67;24.07;;;18.20;48.90;;;;;;4919901;29;20428;-80
2023/08/08 08:42:27;;;;;;;75.50;16.77;;;18.30;47.40;;;;;;4903430;29;20409;-81
2023/08/08 08:44:58;;;;;;;78.13;13.87;;;18.40;39.60;;;;;;4920408;29;20397;-80
2023/08/08 08:47:25;;;;;;;83.33;11.70;;;18.40;31.70;;;;;;4903184;29;20409;-80
2023/08/08 08:49:52;;;;;;;75.10;9.47;;;18.40;24.60;;;;;;4903465;29;20476;-81
2023/08/08 08:52:19;;;;;;;76.77;8.27;;;18.40;30.10;;;;;;4920808;29;20798;-80
2023/08/08 08:54:45;;;;;;;78.33;9.77;;;18.30;29.90;;;;;;4903095;29;20429;-80
2023/08/08 08:57:11;;;;;;;75.87;8.97;;;18.30;29.40;;;;;;4920418;29;20550;-80
2023/08/08 08:59:37;;;;;;;73.83;9.00;;;18.30;29.80;;;;;;4919989;29;20441;-80
2023/08/08 09:02:03;;;;;;;73.53;10.60;;;18.40;25.70;;;;;;4920065;29;20402;-80
2023/08/08 09:04:30;;;;;;;77.47;12.30;;;18.40;17.80;;;;;;4920250;29;20280;-80
2023/08/08 09:06:56;;;;;;;74.20;12.90;;;18.40;17.70;;;;;;4903012;29;20505;-80
2023/08/08 09:09:22;;;;;;;77.30;12.47;;;18.50;19.00;;;;;;4902583;29;20468;-80
2023/08/08 09:11:51;;;;;;;74.80;14.43;;;18.50;18.80;;;;;;4920683;29;20465;-80
2023/08/08 09:14:21;;;;;;;75.30;12.67;;;18.60;8.50;;;;;;4919672;29;20404;-80
2023/08/08 09:16:48;;;;;;;78.80;11.20;;;18.60;15.70;;;;;;4919549;29;20390;-80
2023/08/08 09:19:17;;;;;;;76.00;10.67;;;18.70;20.50;;;;;;4919875;29;20484;-80
2023/08/08 09:21:43;;;;;;;77.90;13.10;;;18.80;18.10;;;;;;4902314;29;20786;-80
2023/08/08 09:24:09;;;;;;;82.13;12.90;;;18.80;12.60;;;;;;4919564;29;20402;-80
2023/08/08 09:26:35;;;;;;;75.20;13.67;;;18.80;13.00;;;;;;4919850;29;20227;-80
2023/08/08 09:29:02;;;;;;;78.40;13.83;;;18.80;12.00;;;;;;4919713;29;20200;-80
2023/08/08 09:31:28;;;;;;;79.20;12.93;;;18.80;8.80;;;;;;4919826;29;20170;-80
2023/08/08 09:33:56;;;;;;;73.27;11.23;;;18.90;3.70;;;;;;4919537;29;20418;-80
2023/08/08 09:36:23;;;;;;;75.00;12.33;;;18.90;7.40;;;;;;4919205;29;20421;-80
2023/08/08 09:38:49;;;;;;;74.10;11.77;;;19.00;7.20;;;;;;4919080;29;20827;-80
2023/08/08 09:41:15;;;;;;;73.60;10.50;;;19.10;6.30;;;;;;4919233;29;20437;-80
2023/08/08 09:43:44;;;;;;;75.40;9.30;;;19.00;1.00;;;;;;4902448;29;20473;-80
2023/08/08 09:46:15;;;;;;;78.80;11.27;;;19.00;1.00;;;;;;4919393;29;20488;-80
2023/08/08 09:48:41;;;;;;;75.53;9.67;;;19.20;1.00;;;;;;4919514;29;20425;-80
2023/08/08 09:51:08;;;;;;;76.27;10.50;;;19.30;1.00;;;;;;4919485;29;20406;-80
2023/08/08 09:53:34;;;;;;;72.53;8.57;;;19.30;1.00;;;;;;4919249;29;20418;-80
2023/08/08 09:56:04;;;;;;;74.17;8.93;;;19.40;1.00;;;;;;4918989;29;20437;-80
2023/08/08 09:58:30;;;;;;;71.07;7.97;;;19.50;1.00;;;;;;4919043;29;20540;-80
2023/08/08 10:00:56;;;;;;;72.73;8.10;;;19.50;1.00;;;;;;4918988;29;20457;-80
2023/08/08 10:03:23;;;;;;;74.07;8.50;;;19.40;1.00;;;;;;4918753;29;20440;-80
2023/08/08 10:05:49;;;;;;;73.13;7.43;;;19.30;1.00;;;;;;4918713;29;20444;-80
2023/08/08 10:08:16;;;;;;;72.70;5.47;;;19.20;1.00;;;;;;4919057;29;20405;-80
2023/08/08 10:10:44;;;;;;;72.37;5.40;;;19.30;1.00;;;;;;4919297;29;20191;-80
2023/08/08 10:13:10;;;;;;;73.37;6.00;;;19.30;1.00;;;;;;4919154;29;20413;-79
2023/08/08 10:15:38;;;;;;;75.77;5.47;;;19.30;1.00;;;;;;4919010;29;20414;-80
2023/08/08 10:18:04;;;;;;;71.90;6.60;;;19.40;1.00;;;;;;4901744;29;20529;-80
2023/08/08 10:20:35;;;;;;;74.57;6.10;;;19.60;1.00;;;;;;4901606;29;20461;-80
2023/08/08 10:23:02;;;;;;;73.47;6.20;;;19.70;1.00;;;;;;4918679;29;20409;-80
2023/08/08 10:25:30;;;;;;;74.00;6.17;;;19.80;1.00;;;;;;4918654;29;20405;-80
2023/08/08 10:28:08;;;;;;;77.87;6.67;;;19.80;1.00;;;;;;4918142;29;20416;-80
2023/08/08 10:30:52;;;;;;;75.80;6.10;;;19.90;1.00;;;;;;4918637;29;20845;-79
2023/08/08 10:33:22;;;;;;;76.33;6.30;;;20.00;1.00;;;;;;4900908;29;20417;-80
2023/08/08 10:36:06;;;;;;;71.90;5.30;;;20.10;1.00;;;;;;4919094;29;20488;-80
2023/08/08 10:38:58;;;;;;;74.90;5.50;;;20.10;1.00;;;;;;4901358;29;20843;-80
2023/08/08 10:41:26;;;;;;;73.20;6.20;;;20.10;1.00;;;;;;4915849;29;20426;-80
2023/08/08 10:43:57;;;;;;;70.20;4.30;;;20.00;1.00;;;;;;4918574;29;20902;-80
2023/08/08 10:46:28;;;;;;;73.27;5.83;;;19.90;1.00;;;;;;4918859;29;20409;-80
2023/08/08 10:48:56;;;;;;;74.40;6.13;;;19.90;1.00;;;;;;4918546;29;20491;-80
2023/08/08 10:51:22;;;;;;;69.87;5.60;;;19.80;1.00;;;;;;4918388;29;20603;-80
2023/08/08 10:53:51;;;;;;;75.60;5.07;;;19.80;1.00;;;;;;4918496;29;20444;-80
2023/08/08 10:56:19;;;;;;;72.90;6.00;;;19.80;1.00;;;;;;4901338;29;20185;-80
2023/08/08 10:58:49;;;;;;;72.17;5.67;;;19.80;1.00;;;;;;4918562;29;20830;-80
2023/08/08 11:01:16;;;;;;;72.00;4.40;;;20.00;1.00;;;;;;4901455;29;20417;-80
2023/08/08 11:03:43;;;;;;;71.53;4.80;;;20.00;1.00;;;;;;4917833;29;20417;-80
2023/08/08 11:06:10;;;;;;;72.33;4.27;;;20.00;1.00;;;;;;4918291;29;20410;-79
2023/08/08 11:08:40;;;;;;;70.87;3.70;;;20.00;1.00;;;;;;4917796;29;20439;-80
2023/08/08 11:11:06;;;;;;;75.07;4.20;;;20.00;1.00;;;;;;4901324;29;20517;-80
2023/08/08 11:13:32;;;;;;;72.20;4.83;;;19.90;1.00;;;;;;4918074;29;20406;-80
2023/08/08 11:15:58;;;;;;;70.70;5.27;;;19.80;1.00;;;;;;4918121;29;20778;-79
2023/08/08 11:18:25;;;;;;;70.37;4.63;;;19.70;1.00;;;;;;4918622;29;20513;-80
2023/08/08 11:20:51;;;;;;;72.27;4.37;;;19.90;1.00;;;;;;4918397;29;20166;-80
2023/08/08 11:23:17;;;;;;;70.67;5.03;;;20.00;1.00;;;;;;4918284;29;20406;-80
2023/08/08 11:25:44;;;;;;;70.90;5.27;;;20.00;1.00;;;;;;4918764;29;20489;-80
2023/08/08 11:28:12;;;;;;;70.97;5.73;;;20.10;1.00;;;;;;4902099;29;20473;-79
2023/08/08 11:30:40;;;;;;;70.40;6.20;;;20.20;1.00;;;;;;4918431;29;20433;-80
2023/08/08 11:33:06;;;;;;;73.37;5.90;;;20.30;1.00;;;;;;4918286;29;20782;-80
2023/08/08 11:35:34;;;;;;;76.27;4.43;;;20.40;1.00;;;;;;4917996;29;20410;-80
2023/08/08 11:38:00;;;;;;;72.70;3.93;;;20.60;1.00;;;;;;4918101;29;20490;-80
2023/08/08 11:40:28;;;;;;;72.87;4.97;;;20.90;1.00;;;;;;4918506;29;20468;-80
2023/08/08 11:42:56;;;;;;;73.90;7.40;;;21.20;1.00;;;;;;4918205;29;20449;-80
2023/08/08 11:45:22;;;;;;;72.57;9.60;;;21.50;1.00;;;;;;4920761;29;20444;-80
2023/08/08 11:47:50;;;;;;;74.27;10.17;;;21.60;1.00;;;;;;4904504;29;20782;-80
2023/08/08 11:50:16;;;;;;;73.33;8.80;;;21.90;1.00;;;;;;4921270;29;20439;-80
2023/08/08 11:52:45;;;;;;;72.17;6.40;;;22.10;1.00;;;;;;4904824;29;20421;-81
2023/08/08 11:55:12;;;;;;;71.50;5.00;;;22.20;1.00;;;;;;4920775;29;20442;-80
2023/08/08 11:57:39;;;;;;;73.97;10.40;;;22.00;1.00;;;;;;4920950;29;20905;-80
2023/08/08 12:00:10;;;;;;;77.83;8.03;;;21.90;1.00;;;;;;4921063;29;20452;-80
2023/08/08 12:02:39;;;;;;;71.47;6.00;;;21.50;1.00;;;;;;4903891;29;20402;-81
2023/08/08 12:05:06;;;;;;;71.80;6.50;;;21.20;1.00;;;;;;4920856;29;20414;-81
2023/08/08 12:07:34;;;;;;;71.70;6.10;;;21.00;1.00;;;;;;4920642;29;20928;-80
2023/08/08 12:10:00;;;;;;;72.13;4.87;;;20.80;1.00;;;;;;4920724;29;20440;-80
2023/08/08 12:12:30;;;;;;;71.07;4.97;;;20.60;1.00;;;;;;4904014;29;20414;-80
2023/08/08 12:14:56;;;;;;;71.70;4.13;;;20.50;1.00;;;;;;4921035;29;20149;-80
2023/08/08 12:17:22;;;;;;;70.70;4.97;;;20.60;1.00;;;;;;4921099;29;20411;-80
2023/08/08 12:19:48;;;;;;;71.90;5.40;;;20.70;1.00;;;;;;4920897;29;20189;-80
2023/08/08 12:22:15;;;;;;;72.40;4.33;;;20.80;1.00;;;;;;4921396;29;20507;-80
2023/08/08 12:24:40;;;;;;;72.07;4.53;;;20.90;1.00;;;;;;4920832;29;20415;-80
2023/08/08 12:27:06;;;;;;;70.97;5.50;;;21.10;1.00;;;;;;4920655;29;20470;-80
2023/08/08 12:29:32;;;;;;;73.93;6.30;;;21.10;1.00;;;;;;4920863;29;20207;-79
2023/08/08 12:31:57;;;;;;;73.90;6.80;;;21.00;1.00;;;;;;4903752;29;20184;-81